LAKE NATOMA (NIMBUS DAM) (NAT)

Elevation: 132' · AMERICAN R basin · Operator: US Bureau of Reclamation

Provisional data, subject to change.
Query executed Thursday at 4:47:32   clock

Select a sensor type for a plot of data.
Note: Reservoir Flows are daily averages.

Earlier

Date RES ELE    STORAGE    RES CHG    OUTFLOW    INFLOW    SPILL    DIS PWR   
 FEET   AF   AF   CFS   CFS   CFS   CFS  
10/29/2014 124.81 8666 -127 1074 1011 0 1044
10/30/2014 124.22 8371 -295 1084 936 0 1051
10/31/2014 123.35 7956 -415 1092 884 0 1057
11/01/2014 122.70 7656 -300 1107 956 0 1057
11/02/2014 123.72 8129 473 1108 1346 0 1052
11/03/2014 124.18 8351 222 1080 1193 0 1024
11/04/2014 123.88 8205 -146 1068 995 0 1012
11/05/2014 123.61 8078 -127 1079 1016 0 1023
11/06/2014 123.88 8205 127 1080 1145 0 1024
11/07/2014 123.96 8242 37 1074 1094 0 1024
11/08/2014 124.41 8466 224 1068 1182 0 1024
11/09/2014 123.08 7829 -637 1066 746 0 1025
11/10/2014 123.34 7951 122 1053 1116 0 1023
11/11/2014 123.31 7937 -14 1044 1038 0 1023
11/12/2014 123.30 7932 -5 1042 1040 0 1021
11/13/2014 123.25 7909 -23 1048 1036 0 1027
11/14/2014 124.07 8296 387 1048 1244 0 1011
11/15/2014 124.52 8521 225 1071 1185 0 1013
11/16/2014 124.35 8436 -85 1076 1034 0 1013
11/17/2014 123.90 8214 -222 1074 963 0 1011
11/18/2014 124.18 8351 137 1072 1142 0 1009
11/19/2014 123.68 8111 -240 1078 958 0 1010
11/20/2014 123.06 7819 -292 1076 929 0 1001
11/21/2014 123.51 8031 212 1054 1161 38 941
11/22/2014 124.38 8451 420 1047 1259 0 972
11/23/2014 124.69 8606 155 1049 1127 0 974
11/24/2014 124.03 8276 -330 1062 896 0 974
11/25/2014 124.10 8311 35 1068 1087 0 973
11/26/2014 123.91 8219 -92 1067 1022 0 972
11/27/2014 -- -- -- -- -- -- --

Later | Latest

Warning! This data is preliminary and subject to revision.

Show NAT Map | Plot NAT Data | 1 Month NAT Data | Real-Time NAT Data | NAT Info